METAR Data
IDs: Format: Raw Decoded Include TAF

Data at: 0121 UTC 06 Dec 2019

KGMU 060053Z 00000KT 10SM CLR 10/M04 A3016 RMK AO2 SLP216 T01001039
KGMU 052353Z 00000KT 10SM CLR 13/M04 A3015 RMK AO2 SLP212 T01281044 10178 20122 53016
KGMU 052253Z 00000KT 10SM CLR 15/M07 A3013 RMK AO2 SLP204 T01501067
KGMU 052153Z 20005KT 10SM CLR 16/M06 A3011 RMK AO2 SLP196 T01611061
KGMU 052053Z 20006KT 10SM CLR 17/M06 A3010 RMK AO2 SLP193 T01721061 53001
KGMU 051953Z VRB06KT 10SM CLR 17/M06 A3009 RMK AO2 SLP187 T01721056
KGMU 051853Z VRB05KT 10SM CLR 18/M07 A3009 RMK AO2 SLP186 T01781067
KGMU 051753Z 26004KT 10SM CLR 16/M07 A3010 RMK AO2 SLP191 60000 T01611067 10167 20056 58002
KGMU 051653Z 00000KT 10SM CLR 15/M04 A3012 RMK AO2 SLP198 T01501039
KGMU 051553Z 34003KT 10SM CLR 14/M03 A3013 RMK AO2 SLP202 T01391033
KGMU 051453Z 34006KT 10SM CLR 12/M03 A3011 RMK AO2 RAB01E36 SLP194 P0000 60000 T01171033 53035
KGMU 051353Z 00000KT 10SM CLR 09/M02 A3007 RMK AO2 SLP181 T00941022
KGMU 051253Z 27003KT 10SM CLR 06/M02 A3003 RMK AO2 SLP171 T00561017
KGMU 051153Z 34003KT 10SM CLR 06/M03 A3000 RMK AO2 SLP159 T00561028 10094 20056 51024
KGMU 051053Z AUTO 00000KT 10SM CLR 06/M03 A2999 RMK AO2 SLP154 T00611033
KGMU 050953Z AUTO 27003KT 10SM CLR 08/M04 A2995 RMK AO2 SLP140 T00831039
KGMU 050853Z AUTO 25006KT 10SM CLR 07/M03 A2992 RMK AO2 SLP131 T00721028 53022
KGMU 050753Z AUTO 00000KT 10SM CLR 07/M03 A2990 RMK AO2 SLP122 T00721028
KGMU 050653Z AUTO 29003KT 10SM CLR 09/M03 A2988 RMK AO2 SLP115 T00941033
KGMU 050553Z AUTO 23006KT 10SM CLR 09/M03 A2986 RMK AO2 SLP109 T00891033 10133 20083 53002
KGMU 050453Z AUTO 23007KT 10SM CLR 09/M03 A2985 RMK AO2 SLP108 T00891028 401780011
KGMU 050353Z AUTO 23005KT 10SM CLR 09/M04 A2985 RMK AO2 SLP108 T00941039
KGMU 050253Z AUTO VRB03KT 10SM CLR 10/M05 A2985 RMK AO2 SLP109 T01001050 51012
KGMU 050153Z 26008KT 10SM CLR 11/M05 A2984 RMK AO2 SLP108 T01111050
KGMU 050053Z 26010KT 10SM CLR 12/M06 A2983 RMK AO2 SLP102 T01221056
KGMU 042353Z 28010KT 10SM CLR 13/M06 A2981 RMK AO2 SLP098 T01331061 10178 20133 51023
KGMU 042253Z 28007KT 10SM CLR 14/M07 A2980 RMK AO2 SLP092 T01441072
KGMU 042153Z 30005G19KT 10SM CLR 16/M08 A2977 RMK AO2 SLP083 T01611083
KGMU 042053Z 27012KT 10SM CLR 17/M07 A2974 RMK AO2 SLP072 T01721067 55006
KGMU 041953Z 25010KT 10SM CLR 17/M04 A2974 RMK AO2 SLP068 T01721039
KGMU 041853Z 25013KT 10SM CLR 16/M02 A2975 RMK AO2 SLP072 T01611017
KGMU 041753Z 24009KT 10SM CLR 14/M02 A2976 RMK AO2 SLP078 T01441017 10144 20011 58016
KGMU 041653Z 22010KT 10SM CLR 12/M02 A2979 RMK AO2 SLP088 T01221017
KGMU 041553Z 26005KT 10SM CLR 10/M02 A2981 RMK AO2 SLP095 T01001017
KGMU 041453Z 00000KT 10SM CLR 07/M01 A2981 RMK AO2 SLP097 T00721011 51010
KGMU 041353Z 00000KT 10SM CLR 04/M01 A2981 RMK AO2 SLP097 T00391006